Main page
METAR-TAF:

METAR-TAF

Airports :

Nouakchott–Oumtounsy International Airport

Nouakchott, Mauritania

latitude: 18-18-36N, longitude: 015-58-11W, elevation: 3 m

Current weather observation

The report was made 30 minutes ago, at 01:30 UTC
Wind 12 kt from the North
Temperature 23°C
Humidity 61%
Pressure 1008 hPa
Visibility: 8000 m

METAR: GQNO 110130Z 35012KT 8000 NSC 23/15 Q1008 NOSIG

Time: 02:00 (02:00 UTC)

Forecast

The report was made 3 hours and 0 minutes ago, at 23:00 UTC
Forecast valid from 11 at 00 UTC to 12 at 06 UTC
Wind 10 kt from the North/Northwest
Visibility: 8000 m
Becoming
from 11 at 09 UTC to 11 at 11 UTC
Wind 12 kt from the Northeast
Becoming
from 11 at 16 UTC to 11 at 18 UTC
Wind 14 kt from the North/Northwest

TAF: GQNO 102300Z 1100/1206 34010KT 8000 NSC BECMG 1109/1111 04012KT BECMG 1116/1118 33014KT

Weather observations and forecasts of more than 4000 airports (METAR and TAF reports).

The available stations are represented by yellow and red dots on the map.

Hover mouse over dot to see the name of the station.

Then click to see weather observations and forecasts.

To change the map : click on the green buttons with a black cross to zoom in, on the green button with a dash to zoom out, or on the green arrows for adjacent maps.


METAR-TAF: